CFG37ML EDDH-EDDL
Flight info
| Callsign | CFG37ML |
|---|---|
| Flight time | N/A |
| Altitude | 28000 |
| Route | HABFU1G HABFU Y348 MAWEQ Z718 OSNAD M170 HMM/N0406F240 T851 HALME HALME1A |
| Aircraft | A320/M-SDE3FGHIRWY/LB1 |
Departure
| Time | 2026-04-30 22:39 |
|---|---|
| Airport | Hamburg Helmut Schmidt Airport (EDDH) |
Arrival
| Time | N/A |
|---|---|
| Airport | Düsseldorf Airport (EDDL) |
| Time | Latitude | Longitude | Altitude | Speed | Heading |
|---|---|---|---|---|---|
| 2026-04-30 22:29 | 53.62741 | 10.00314 | 48 ft | 0 kts | 63° |
| 2026-04-30 22:33 | 53.62717 | 10.00240 | 48 ft | 4 kts | 62° |
| 2026-04-30 22:33 | 53.62719 | 10.00181 | 48 ft | 3 kts | 153° |
| 2026-04-30 22:34 | 53.62743 | 10.00160 | 48 ft | 0 kts | 153° |
| 2026-04-30 22:36 | 53.62729 | 10.00172 | 48 ft | 6 kts | 153° |
| 2026-04-30 22:37 | 53.62607 | 10.00265 | 48 ft | 8 kts | 176° |
| 2026-04-30 22:37 | 53.62569 | 10.00201 | 48 ft | 8 kts | 242° |
| 2026-04-30 22:37 | 53.62539 | 10.00039 | 47 ft | 6 kts | 301° |
| 2026-04-30 22:38 | 53.62724 | 9.99868 | 46 ft | 61 kts | 333° |
| 2026-04-30 22:38 | 53.64273 | 9.98523 | 305 ft | 159 kts | 332° |
| 2026-04-30 22:39 | 53.65256 | 9.97681 | 1080 ft | 158 kts | 333° |
| 2026-04-30 22:39 | 53.68170 | 9.95225 | 3240 ft | 155 kts | 335° |
| 2026-04-30 22:40 | 53.71270 | 9.91379 | 4480 ft | 222 kts | 289° |
| 2026-04-30 22:41 | 53.69188 | 9.83853 | 6315 ft | 277 kts | 208° |
| 2026-04-30 22:41 | 53.65760 | 9.80643 | 8149 ft | 287 kts | 207° |
| 2026-04-30 22:42 | 53.58386 | 9.73917 | 11072 ft | 330 kts | 206° |
| 2026-04-30 22:43 | 53.54103 | 9.70019 | 12021 ft | 362 kts | 207° |
| 2026-04-30 22:43 | 53.49615 | 9.65903 | 13534 ft | 372 kts | 207° |
| 2026-04-30 22:44 | 53.45002 | 9.61702 | 14956 ft | 382 kts | 206° |
| 2026-04-30 22:45 | 53.35439 | 9.53031 | 17593 ft | 399 kts | 207° |
| 2026-04-30 22:45 | 53.30497 | 9.48565 | 18815 ft | 408 kts | 207° |
| 2026-04-30 22:46 | 53.25455 | 9.44016 | 20042 ft | 415 kts | 207° |
| 2026-04-30 22:47 | 53.15099 | 9.34735 | 22351 ft | 430 kts | 207° |
| 2026-04-30 22:47 | 53.09787 | 9.29986 | 23381 ft | 437 kts | 207° |
| 2026-04-30 22:48 | 53.04389 | 9.25171 | 24345 ft | 443 kts | 207° |
| 2026-04-30 22:49 | 52.96171 | 9.17845 | 25708 ft | 451 kts | 210° |
| 2026-04-30 22:49 | 52.88727 | 9.08176 | 26934 ft | 457 kts | 220° |
| 2026-04-30 22:50 | 52.78870 | 8.94636 | 28369 ft | 463 kts | 220° |
| 2026-04-30 22:51 | 52.73921 | 8.87896 | 28446 ft | 459 kts | 220° |
| 2026-04-30 22:52 | 52.66546 | 8.77862 | 28448 ft | 458 kts | 220° |
| 2026-04-30 22:53 | 52.56709 | 8.64572 | 28454 ft | 457 kts | 220° |
| 2026-04-30 22:53 | 52.49333 | 8.54635 | 28458 ft | 457 kts | 219° |
| 2026-04-30 22:55 | 52.37031 | 8.38196 | 28458 ft | 456 kts | 219° |
| 2026-04-30 22:56 | 52.28551 | 8.27165 | 28304 ft | 454 kts | 211° |
| 2026-04-30 22:56 | 52.20988 | 8.17995 | 27183 ft | 452 kts | 223° |
| 2026-04-30 22:57 | 52.16423 | 8.11055 | 25825 ft | 446 kts | 222° |
| 2026-04-30 22:57 | 52.11778 | 8.04579 | 24483 ft | 440 kts | 218° |
| 2026-04-30 22:58 | 52.07022 | 7.98430 | 23200 ft | 434 kts | 217° |
| 2026-04-30 22:59 | 51.99994 | 7.89424 | 21497 ft | 424 kts | 217° |
| 2026-04-30 22:59 | 51.93171 | 7.80544 | 19880 ft | 414 kts | 217° |